Portada
METAR-TAF:

METAR-TAF

Aeroports :

Marham, Anglaterra

latitud: 52-39N, longitud: 000-34E, altitud: 23 m

Observació

L'informe es va fer fa 1 hora i 1 minuts, a les 20:50 UTC
Vent 2 kt del Sud/Sud-Oest
Temperatura 17°C
Humitat 68%
Pressió 1011 hPa
Visibilitat 10 km o més
sense núvols per sota de 1500 mi sense presència de cumulonimbus.

METAR: EGYM 182050Z 20002KT CAVOK 17/11 Q1011 BLU

Hora: 22:51 (21:51 UTC)

Pronòstic

L'informe es va fer fa 8 hores i 20 minuts, a les 13:31 UTC
Pronòstic vàlid del 18 a les 15 UTC al 18 a les 21 UTC
Vent 8 kt del Oest
Visibilitat 10 km o més
Escasses núvols a una alçada de 2000 ft
Cel ennuvolat a una alçada de 4500 ft

TAF: EGYM 181331Z 1815/1821 27008KT 9999 FEW020 BKN045

Observacions i pronòstics meteorològics de més de 4000 aeroports (METAR i TAF).

Les estacions disponibles són els punts grocs i vermells al mapa.

Posi el ratolí al punt desitjat per veure el nom de l'estació.

Feu clic per veure les observacions i els pronòstics meteorològics.

Per canviar el mapa: feu clic els botons verds amb una creu de color negre per apropar; al botó verd amb un guió per allunyar la imatge; o en les fletxes verdes per a mapes adjacents.


METAR-TAF: